^^
Mint Hill Weather Station Historical Data
 
Daily Summary for November 23, 2014 Units:  English    Metric   Both
« Previous Day
Next Day »
Daily Weekly Monthly Yearly Custom
  Current: High: Low: Average:
Temperature: 46.0 °F 46.0 °F 38.9 °F 42.3 °F
Dew Point: 44.9 °F 44.9 °F 30.6 °F 36.9 °F
Humidity: 96% 96% 69% 82%
Wind Speed: 0.2mph 0.9mph 0.0mph 0mph
Wind Gust: 1.1mph 2.3mph - -
WindESE - - SSW
Pressure: 30.15 in 30.29 in 30.15 in -
Precipitation: 0.17 in      
Historical Graphs
 
 
Tabular Data for November 23, 2014
Time Temperature Dew Point Pressure Wind Wind Speed Wind Gust Humidity Rainfall Rate (Hourly) solar Conditions
00:04 38.9 °F 30.6 °F 30.28 in Calm     72% 0.00 in 0.0 W/m2 FEW
00:09 39.0 °F 31.7 °F 30.28 in Calm     75% 0.00 in 0.0 W/m2 FEW
00:14 38.9 °F 31.6 °F 30.29 in Calm     75% 0.00 in 0.0 W/m2 FEW
00:19 39.0 °F 31.7 °F 30.28 in Calm     75% 0.00 in 0.0 W/m2 FEW
00:24 39.0 °F 31.7 °F 30.28 in Calm     75% 0.00 in 0.0 W/m2 FEW
00:29 39.1 °F 31.8 °F 30.28 in Calm     75% 0.00 in 0.0 W/m2 FEW
00:34 39.1 °F 31.5 °F 30.27 in Calm     74% 0.00 in 0.0 W/m2 FEW
00:39 39.1 °F 31.2 °F 30.27 in Calm     73% 0.00 in 0.0 W/m2 FEW
00:44 39.2 °F 31.3 °F 30.27 in Calm     73% 0.00 in 0.0 W/m2 FEW
00:49 39.2 °F 31.3 °F 30.27 in Calm     73% 0.00 in 0.0 W/m2 FEW
00:54 39.4 °F 31.5 °F 30.27 in Calm     73% 0.00 in 0.0 W/m2 FEW
00:59 39.6 °F 32.7 °F 30.27 in Calm     76% 0.00 in 0.0 W/m2 FEW
01:04 39.7 °F 32.8 °F 30.27 in Calm     76% 0.00 in 0.0 W/m2 BKN
01:09 39.8 °F 32.8 °F 30.27 in Calm     76% 0.00 in 0.0 W/m2 BKN
01:15 39.9 °F 32.9 °F 30.26 in Calm     76% 0.00 in 0.0 W/m2 BKN
01:20 40.1 °F 32.8 °F 30.26 in Calm     75% 0.00 in 0.0 W/m2 BKN
01:25 40.4 °F 33.4 °F 30.27 in Calm     76% 0.00 in 0.0 W/m2 BKN
01:30 40.5 °F 33.2 °F 30.27 in Calm     75% 0.00 in 0.0 W/m2 BKN
01:35 40.6 °F 33.3 °F 30.27 in Calm     75% 0.00 in 0.0 W/m2 BKN
01:40 40.7 °F 33.7 °F 30.26 in Calm     76% 0.00 in 0.0 W/m2 BKN
01:45 40.7 °F 33.7 °F 30.26 in Calm     76% 0.00 in 0.0 W/m2 BKN
01:50 40.8 °F 32.8 °F 30.25 in Calm     73% 0.00 in 0.0 W/m2 BKN
01:55 40.8 °F 32.8 °F 30.25 in Calm     73% 0.00 in 0.0 W/m2 BKN
02:00 40.9 °F 32.9 °F 30.25 in Calm     73% 0.00 in 0.0 W/m2 BKN
02:05 41.0 °F 33.0 °F 30.25 in Calm     73% 0.00 in 0.0 W/m2 OVC
02:10 41.1 °F 33.1 °F 30.25 in Calm     73% 0.00 in 0.0 W/m2 OVC
02:15 41.2 °F 32.9 °F 30.25 in Calm     72% 0.00 in 0.0 W/m2 OVC
02:20 41.3 °F 33.0 °F 30.25 in Calm     72% 0.00 in 0.0 W/m2 OVC
02:25 41.3 °F 33.3 °F 30.25 in Calm     73% 0.00 in 0.0 W/m2 OVC
02:30 41.5 °F 33.5 °F 30.25 in Calm     73% 0.00 in 0.0 W/m2 OVC
02:35 41.5 °F 33.1 °F 30.24 in Calm     72% 0.00 in 0.0 W/m2 OVC
02:40 41.6 °F 32.9 °F 30.25 in Calm     71% 0.00 in 0.0 W/m2 OVC
02:45 41.8 °F 33.1 °F 30.25 in Calm     71% 0.00 in 0.0 W/m2 OVC
02:50 41.9 °F 33.2 °F 30.25 in Calm     71% 0.00 in 0.0 W/m2 OVC
02:55 42.1 °F 33.4 °F 30.25 in Calm     71% 0.00 in 0.0 W/m2 OVC
03:00 42.2 °F 33.5 °F 30.25 in Calm     71% 0.00 in 0.0 W/m2 OVC
03:05 42.3 °F 33.6 °F 30.25 in Calm     71% 0.00 in 0.0 W/m2 OVC
03:10 42.4 °F 33.7 °F 30.25 in Calm     71% 0.00 in 0.0 W/m2 OVC
03:15 42.4 °F 33.7 °F 30.25 in Calm     71% 0.00 in 0.0 W/m2 OVC
03:20 42.5 °F 33.4 °F 30.25 in Calm     70% 0.00 in 0.0 W/m2 OVC
03:25 42.7 °F 33.6 °F 30.24 in Calm     70% 0.00 in 0.0 W/m2 OVC
03:30 42.7 °F 33.6 °F 30.23 in Calm     70% 0.00 in 0.0 W/m2 OVC
03:35 42.8 °F 33.3 °F 30.23 in Calm     69% 0.00 in 0.0 W/m2 OVC
03:40 42.9 °F 33.4 °F 30.23 in Calm     69% 0.00 in 0.0 W/m2 OVC
03:45 43.1 °F 33.6 °F 30.24 in Calm     69% 0.00 in 0.0 W/m2 OVC
03:50 43.3 °F 33.8 °F 30.24 in Calm     69% 0.00 in 0.0 W/m2 OVC
03:55 43.3 °F 33.8 °F 30.23 in Calm     69% 0.00 in 0.0 W/m2 OVC
04:00 43.4 °F 33.9 °F 30.23 in Calm     69% 0.00 in 0.0 W/m2 OVC
04:05 43.5 °F 34.4 °F 30.24 in Calm     70% 0.00 in 0.0 W/m2 OVC
04:10 43.7 °F 34.6 °F 30.24 in Calm     70% 0.00 in 0.0 W/m2 OVC
04:15 43.9 °F 35.5 °F 30.24 in Calm     72% 0.00 in 0.0 W/m2 OVC
04:20 44.0 °F 35.2 °F 30.23 in Calm     71% 0.00 in 0.0 W/m2 OVC
04:25 44.0 °F 35.9 °F 30.22 in Calm     73% 0.00 in 0.0 W/m2 OVC
04:30 44.0 °F 36.2 °F 30.22 in Calm     74% 0.00 in 0.0 W/m2 OVC
04:35 44.0 °F 35.6 °F 30.23 in Calm     72% 0.00 in 0.0 W/m2 OVC
04:40 44.0 °F 35.2 °F 30.23 in Calm   1.0 mph 71% 0.00 in 0.0 W/m2 OVC
04:45 44.0 °F 34.5 °F 30.23 in Calm     69% 0.00 in 0.0 W/m2 OVC
04:50 44.0 °F 34.5 °F 30.23 in Calm   1.1 mph 69% 0.00 in 0.0 W/m2 OVC
04:55 44.0 °F 34.8 °F 30.23 in Calm   1.1 mph 70% 0.00 in 0.0 W/m2 OVC
05:00 44.0 °F 34.8 °F 30.23 in Calm     70% 0.00 in 0.0 W/m2 OVC
05:05 44.0 °F 35.2 °F 30.23 in Calm     71% 0.00 in 0.0 W/m2 -RA
05:10 44.0 °F 35.2 °F 30.22 in NNW 0.1 mph 1.1 mph 71% 0.00 in 0.0 W/m2 -RA
05:15 44.0 °F 35.6 °F 30.22 in Calm     72% 0.00 in 0.0 W/m2 -RA
05:20 44.0 °F 36.9 °F 30.23 in Calm     76% 0.00 in 0.0 W/m2 -RA
05:25 44.0 °F 37.3 °F 30.22 in Calm     77% 0.00 in 0.0 W/m2 -RA
05:30 43.9 °F 37.2 °F 30.23 in Calm     77% 0.00 in 0.0 W/m2 -RA
05:35 43.7 °F 37.9 °F 30.22 in Calm     80% 0.00 in 0.0 W/m2 -RA
05:40 43.5 °F 38.4 °F 30.22 in Calm     82% 0.01 in 0.0 W/m2 -RA
05:45 43.4 °F 38.6 °F 30.23 in NNW 0.2 mph 1.1 mph 83% 0.01 in 0.0 W/m2 -RA
05:50 43.3 °F 38.8 °F 30.23 in North 0.9 mph 2.3 mph 84% 0.02 in 0.0 W/m2 -RA
05:55 43.1 °F 38.9 °F 30.23 in Calm     85% 0.02 in 0.0 W/m2 -RA
06:00 43.0 °F 38.8 °F 30.22 in Calm     85% 0.03 in 0.0 W/m2 -RA
06:05 42.8 °F 38.6 °F 30.22 in Calm     85% 0.03 in 0.0 W/m2 -RA
06:10 42.7 °F 38.8 °F 30.22 in Calm     86% 0.03 in 0.0 W/m2 -RA
06:15 42.6 °F 38.7 °F 30.22 in Calm     86% 0.04 in 0.0 W/m2 -RA
06:20 42.5 °F 38.9 °F 30.22 in Calm     87% 0.04 in 0.0 W/m2 -RA
06:25 42.4 °F 38.8 °F 30.22 in Calm     87% 0.05 in 0.0 W/m2 -RA
06:30 42.3 °F 39.0 °F 30.22 in Calm     88% 0.05 in 0.0 W/m2 -RA
06:35 42.2 °F 38.9 °F 30.22 in Calm     88% 0.05 in 0.0 W/m2 -RA
06:40 42.1 °F 39.1 °F 30.21 in Calm     89% 0.05 in 0.0 W/m2 -RA
06:45 42.0 °F 39.0 °F 30.21 in Calm     89% 0.05 in 0.0 W/m2 -RA
06:51 41.9 °F 38.9 °F 30.21 in Calm     89% 0.05 in 0.0 W/m2 -RA
06:56 41.8 °F 38.8 °F 30.20 in Calm     89% 0.05 in 0.0 W/m2 -RA
07:01 41.8 °F 38.8 °F 30.21 in Calm     89% 0.05 in 0.0 W/m2 -RA
07:06 41.6 °F 38.9 °F 30.21 in Calm     90% 0.06 in 0.0 W/m2 RA
07:11 41.6 °F 38.9 °F 30.21 in Calm     90% 0.06 in 0.0 W/m2 RA
07:16 41.5 °F 38.8 °F 30.21 in Calm     90% 0.06 in 0.0 W/m2 RA
07:21 41.5 °F 38.8 °F 30.21 in Calm     90% 0.06 in 0.0 W/m2 RA
07:26 41.4 °F 38.7 °F 30.21 in Calm     90% 0.06 in 0.0 W/m2 RA
07:31 41.4 °F 39.0 °F 30.21 in Calm     91% 0.06 in 0.0 W/m2 RA
07:36 41.3 °F 38.9 °F 30.20 in Calm     91% 0.06 in 0.0 W/m2 OVC
07:41 41.2 °F 38.8 °F 30.20 in Calm     91% 0.06 in 6.0 W/m2 RA
07:46 41.2 °F 38.8 °F 30.20 in Calm     91% 0.06 in 8.4 W/m2 RA
07:51 41.2 °F 38.8 °F 30.20 in Calm     91% 0.06 in 10.8 W/m2 RA
07:56 41.1 °F 38.7 °F 30.19 in Calm     91% 0.06 in 13.2 W/m2 RA
08:01 41.1 °F 39.0 °F 30.19 in Calm     92% 0.05 in 19.2 W/m2 OVC
08:06 41.1 °F 39.0 °F 30.19 in Calm     92% 0.05 in 27.6 W/m2 -RA
08:11 41.1 °F 39.0 °F 30.19 in Calm     92% 0.05 in 39.6 W/m2 -RA
08:16 41.2 °F 39.1 °F 30.19 in North 0.1 mph 1.1 mph 92% 0.04 in 39.6 W/m2 -RA
08:21 41.4 °F 39.5 °F 30.19 in North 0.1 mph 1.1 mph 93% 0.04 in 46.8 W/m2 -RA
08:26 41.4 °F 39.5 °F 30.20 in Calm     93% 0.03 in 36.0 W/m2 -RA
08:31 41.4 °F 39.5 °F 30.19 in Calm     93% 0.04 in 31.2 W/m2 -RA
08:36 41.6 °F 39.7 °F 30.19 in Calm     93% 0.04 in 38.4 W/m2 -RA
08:41 41.6 °F 39.7 °F 30.20 in Calm     93% 0.03 in 52.8 W/m2 -RA
08:46 41.8 °F 39.9 °F 30.19 in Calm     93% 0.03 in 80.4 W/m2 -RA
08:51 42.0 °F 40.4 °F 30.19 in Calm     94% 0.02 in 92.4 W/m2 -RA
08:56 42.4 °F 40.8 °F 30.18 in Calm   1.1 mph 94% 0.02 in 99.6 W/m2 -RA
09:01 42.7 °F 41.1 °F 30.18 in Calm   1.1 mph 94% 0.02 in 99.6 W/m2 -RA
09:06 42.9 °F 41.3 °F 30.18 in East 0.2 mph 1.1 mph 94% 0.01 in 86.4 W/m2 -RA
09:11 43.2 °F 41.9 °F 30.17 in East 0.1 mph 1.1 mph 95% 0.01 in 88.8 W/m2 -RA
09:16 43.4 °F 42.1 °F 30.17 in Calm   1.1 mph 95% 0.01 in 92.4 W/m2 -RA
09:21 43.7 °F 42.4 °F 30.17 in SE 0.6 mph 2.3 mph 95% 0.01 in 111.6 W/m2 -RA
09:26 44.0 °F 42.7 °F 30.17 in SE 0.1 mph 1.1 mph 95% 0.01 in 116.4 W/m2 -RA
09:31 44.4 °F 43.1 °F 30.17 in SE 0.3 mph 1.0 mph 95% 0.00 in 128.4 W/m2 -RA
09:36 44.6 °F 43.3 °F 30.17 in SE 0.3 mph 1.1 mph 95% 0.00 in 108.0 W/m2 -RA
09:41 44.7 °F 43.4 °F 30.17 in Calm     95% 0.00 in 86.4 W/m2 -RA
09:46 44.8 °F 43.5 °F 30.17 in Calm   1.1 mph 95% 0.00 in 72.0 W/m2 -RA
09:51 44.9 °F 43.6 °F 30.17 in Calm     95% 0.00 in 80.4 W/m2 -RA
09:56 44.9 °F 43.6 °F 30.18 in Calm     95% 0.00 in 94.8 W/m2 -RA
10:01 45.1 °F 43.8 °F 30.18 in Calm     95% 0.00 in 105.6 W/m2 -RA
10:06 45.3 °F 44.2 °F 30.18 in Calm     96% 0.00 in 94.8 W/m2 BKN
10:11 45.4 °F 44.1 °F 30.17 in Calm     95% 0.01 in 82.8 W/m2 RA
10:16 45.5 °F 44.2 °F 30.17 in Calm     95% 0.01 in 91.2 W/m2 RA
10:21 45.6 °F 44.5 °F 30.17 in Calm     96% 0.01 in 86.4 W/m2 BKN
10:26 45.7 °F 44.4 °F 30.17 in Calm   1.1 mph 95% 0.01 in 84.0 W/m2 BKN
10:31 45.8 °F 44.4 °F 30.16 in Calm     95% 0.01 in 100.8 W/m2 BKN
10:36 45.9 °F 44.8 °F 30.15 in Calm   1.1 mph 96% 0.01 in 82.8 W/m2 BKN
10:41 46.0 °F 44.9 °F 30.15 in ESE 0.2 mph 1.1 mph 96% 0.02 in 97.2 W/m2 RA
Mint Hill, North Carolina, USA
Compliments of Weather Underground